Time;durP1;ratioP1;P1;durP2;ratioP2;P2;SDS_P1;SDS_P2;PMS_P1;PMS_P2;Temp;Humidity;BMP_temperature;BMP_pressure;BME280_temperature;BME280_humidity;BME280_pressure;Samples;Min_cycle;Max_cycle;Signal;HPM_P1;HPM_P2
2022/06/15 00:01:23;;;;;;;6.07;4.30;;;;;;;14.07;74.83;101816.81;5099019;28;20032;-58
2022/06/15 00:03:50;;;;;;;8.25;4.63;;;;;;;13.97;75.44;101812.56;5098756;28;20044;-58
2022/06/15 00:06:21;;;;;;;6.53;4.47;;;;;;;13.93;75.90;101808.22;5098804;28;20347;-58
2022/06/15 00:08:52;;;;;;;7.45;4.55;;;;;;;13.89;75.56;101804.75;5098701;28;20043;-57
2022/06/15 00:11:31;;;;;;;7.65;4.50;;;;;;;13.89;76.19;101810.00;5098403;28;20141;-58
2022/06/15 00:13:59;;;;;;;8.30;4.10;;;;;;;13.88;75.99;101812.66;5098649;28;20032;-57
2022/06/15 00:16:26;;;;;;;7.05;4.32;;;;;;;13.80;76.55;101804.00;5098463;28;20036;-58
2022/06/15 00:18:52;;;;;;;6.47;4.50;;;;;;;13.69;76.64;101805.84;5098874;28;20044;-58
2022/06/15 00:21:18;;;;;;;7.30;4.43;;;;;;;13.56;77.39;101807.75;5098643;28;20036;-58
2022/06/15 00:23:43;;;;;;;9.25;4.20;;;;;;;13.49;77.65;101803.47;5098377;28;20107;-57
2022/06/15 00:26:09;;;;;;;6.93;4.22;;;;;;;13.56;77.32;101802.47;5098342;28;20081;-57
2022/06/15 00:28:35;;;;;;;8.70;4.57;;;;;;;13.50;78.10;101799.94;5098428;28;20732;-58
2022/06/15 00:31:01;;;;;;;8.32;4.55;;;;;;;13.53;78.14;101798.13;5098176;28;20434;-58
2022/06/15 00:33:27;;;;;;;7.65;4.30;;;;;;;13.47;78.29;101802.59;5098564;28;20512;-58
2022/06/15 00:35:58;;;;;;;8.10;4.60;;;;;;;13.47;77.81;101800.84;5098279;28;20032;-57
2022/06/15 00:38:26;;;;;;;11.15;4.53;;;;;;;13.42;78.70;101809.66;5098355;28;20035;-58
2022/06/15 00:40:52;;;;;;;7.30;4.75;;;;;;;13.43;77.84;101799.13;5098028;28;20077;-58
2022/06/15 00:43:36;;;;;;;7.78;4.70;;;;;;;13.44;77.08;101792.09;5097925;28;20024;-57
2022/06/15 00:46:28;;;;;;;7.03;4.82;;;;;;;13.50;77.02;101795.56;5098065;28;20043;-56
2022/06/15 00:48:55;;;;;;;;;;;;;;;13.48;75.65;101796.44;5098651;28;20051;-58
2022/06/15 00:51:22;;;;;;;7.15;4.20;;;;;;;13.51;77.85;101796.41;5098016;28;20287;-57
2022/06/15 00:53:48;;;;;;;6.47;4.35;;;;;;;13.45;78.19;101786.84;5097581;28;20023;-57
2022/06/15 00:56:14;;;;;;;7.70;4.50;;;;;;;13.42;77.84;101792.13;5098185;28;20437;-57
2022/06/15 00:58:45;;;;;;;9.68;4.70;;;;;;;13.41;78.49;101794.75;5097786;28;20028;-57
2022/06/15 01:01:11;;;;;;;7.50;5.15;;;;;;;13.31;78.49;101788.72;5097667;28;20025;-57
2022/06/15 01:03:37;;;;;;;8.48;4.68;;;;;;;13.28;78.58;101793.13;5097826;28;20051;-58
2022/06/15 01:06:16;;;;;;;7.05;4.95;;;;;;;13.15;78.81;101788.00;5097120;28;20032;-57
2022/06/15 01:09:00;;;;;;;9.40;5.07;;;;;;;13.15;78.78;101782.75;5097808;28;20028;-57
2022/06/15 01:11:45;;;;;;;8.65;5.28;;;;;;;13.15;79.32;101777.50;5097535;28;20035;-57
2022/06/15 01:14:26;;;;;;;10.93;5.30;;;;;;;13.05;79.10;101775.78;5097436;28;20035;-57
2022/06/15 01:17:23;;;;;;;9.05;5.30;;;;;;;13.09;79.26;101781.88;5097390;28;20058;-57
2022/06/15 01:20:20;;;;;;;9.52;5.47;;;;;;;13.08;79.23;101777.50;5090038;28;20043;-57
2022/06/15 01:23:12;;;;;;;9.45;5.50;;;;;;;13.07;79.01;101771.38;5097792;28;20027;-58
2022/06/15 01:25:42;;;;;;;8.87;4.97;;;;;;;13.08;80.49;101786.25;5097152;28;20028;-57
2022/06/15 01:28:39;;;;;;;11.25;5.15;;;;;;;13.01;79.31;101779.31;5097298;28;20742;-57
2022/06/15 01:31:19;;;;;;;7.95;5.38;;;;;;;13.00;80.31;101782.81;5096841;28;20032;-57
2022/06/15 01:34:13;;;;;;;9.38;5.63;;;;;;;12.94;79.69;101768.88;5097035;28;20492;-56
2022/06/15 01:36:48;;;;;;;9.05;5.80;;;;;;;13.00;80.06;101771.44;5097132;28;20028;-57
2022/06/15 01:39:22;;;;;;;8.75;5.57;;;;;;;13.00;80.18;101774.94;5096886;28;20046;-58
2022/06/15 01:42:08;;;;;;;9.20;5.63;;;;;;;12.90;80.51;101768.91;5097068;28;20067;-58
2022/06/15 01:44:44;;;;;;;8.65;5.85;;;;;;;12.86;80.79;101764.53;5097157;28;20035;-58
2022/06/15 01:47:18;;;;;;;9.70;5.38;;;;;;;12.85;81.27;101768.06;5096805;28;20392;-56
2022/06/15 01:49:50;;;;;;;7.55;5.40;;;;;;;12.81;81.19;101763.69;5096839;28;20043;-57
2022/06/15 01:52:22;;;;;;;10.68;6.03;;;;;;;12.80;81.57;101766.38;5096509;28;20028;-57
2022/06/15 01:55:25;;;;;;;11.65;5.97;;;;;;;12.80;80.41;101769.00;5096800;28;20063;-58
2022/06/15 01:57:55;;;;;;;8.10;5.57;;;;;;;12.78;81.43;101765.50;5064348;28;20036;-58
2022/06/15 02:00:21;;;;;;;9.40;6.45;;;;;;;12.69;82.50;101760.31;5096391;28;20043;-57
2022/06/15 02:02:59;;;;;;;11.05;5.38;;;;;;;12.70;82.32;101762.06;5096679;28;20028;-58
2022/06/15 02:05:32;;;;;;;7.95;5.93;;;;;;;12.66;82.02;101750.69;5096429;28;20032;-58
2022/06/15 02:08:11;;;;;;;8.90;5.80;;;;;;;12.62;82.65;101749.00;5096528;28;20528;-59
2022/06/15 02:10:58;;;;;;;6.78;5.60;;;;;;;12.59;81.92;101759.53;5096224;28;20032;-57
2022/06/15 02:13:29;;;;;;;9.88;5.55;;;;;;;12.59;83.24;101753.41;5096305;28;20031;-57
2022/06/15 02:16:03;;;;;;;7.63;5.73;;;;;;;12.58;83.20;101749.91;5096218;28;20050;-57
2022/06/15 02:18:32;;;;;;;9.55;5.93;;;;;;;12.55;83.36;101744.66;5095237;28;20360;-57
2022/06/15 02:21:02;;;;;;;9.40;5.70;;;;;;;12.55;83.36;101749.91;5096000;28;20453;-56
2022/06/15 02:23:31;;;;;;;7.85;5.47;;;;;;;12.53;83.49;101752.53;5096433;28;20035;-56
2022/06/15 02:25:59;;;;;;;9.60;5.65;;;;;;;12.52;83.39;101742.06;5095876;28;20124;-58
2022/06/15 02:28:29;;;;;;;10.13;5.95;;;;;;;12.47;83.61;101743.81;5096072;28;20355;-58
2022/06/15 02:30:55;;;;;;;8.93;5.70;;;;;;;12.40;84.23;101737.75;5095891;28;20020;-57
2022/06/15 02:33:29;;;;;;;8.02;6.10;;;;;;;12.49;84.08;101739.44;5095954;28;20036;-58
2022/06/15 02:35:57;;;;;;;9.57;5.90;;;;;;;12.44;83.51;101747.38;5095819;28;20042;-57
2022/06/15 02:38:25;;;;;;;8.50;6.18;;;;;;;12.41;83.75;101743.88;5095792;28;20031;-57
2022/06/15 02:40:50;;;;;;;10.80;6.30;;;;;;;12.34;83.82;101744.78;5095696;28;20328;-58
2022/06/15 02:43:20;;;;;;;8.43;5.72;;;;;;;12.31;84.46;101745.69;5095729;28;20058;-57
2022/06/15 02:45:47;;;;;;;10.38;6.18;;;;;;;12.30;84.54;101729.94;5096076;28;20028;-57
2022/06/15 02:48:14;;;;;;;8.68;5.72;;;;;;;12.28;84.99;101735.22;5095569;28;20063;-58
2022/06/15 02:50:52;;;;;;;8.07;6.05;;;;;;;12.28;84.13;101736.97;5095887;28;20089;-58
2022/06/15 02:53:23;;;;;;;12.20;7.20;;;;;;;12.23;84.24;101739.63;5095568;28;20028;-57
2022/06/15 02:55:52;;;;;;;10.63;6.38;;;;;;;12.22;84.86;101726.50;5095711;28;20036;-58
2022/06/15 02:58:24;;;;;;;11.98;6.13;;;;;;;12.20;84.89;101732.63;5095864;28;20031;-57
2022/06/15 03:00:49;;;;;;;10.52;6.03;;;;;;;12.15;84.88;101729.16;5095425;28;20024;-58
2022/06/15 03:03:14;;;;;;;10.50;6.50;;;;;;;12.12;85.23;101723.09;5095535;28;20032;-57
2022/06/15 03:05:41;;;;;;;10.13;6.50;;;;;;;12.03;86.14;101725.75;5095470;28;20352;-58
2022/06/15 03:08:06;;;;;;;11.13;6.78;;;;;;;12.03;85.52;101728.38;5095276;28;20028;-57
2022/06/15 03:10:32;;;;;;;10.65;6.95;;;;;;;12.05;86.39;101732.72;5095471;28;20028;-57
2022/06/15 03:12:57;;;;;;;11.73;6.72;;;;;;;12.08;86.22;101730.09;5095233;28;20035;-58
2022/06/15 03:15:22;;;;;;;11.75;6.22;;;;;;;12.07;85.69;101730.09;5095444;28;20377;-57
2022/06/15 03:17:51;;;;;;;10.68;6.75;;;;;;;12.02;85.81;101727.50;5095534;28;20028;-57
2022/06/15 03:20:16;;;;;;;10.88;6.50;;;;;;;12.04;86.88;101735.34;5095273;28;20031;-56
2022/06/15 03:22:42;;;;;;;9.98;6.25;;;;;;;12.01;85.70;101733.63;5095697;28;20031;-58
2022/06/15 03:25:07;;;;;;;10.57;6.90;;;;;;;11.94;86.96;101733.66;5095402;28;20101;-57
2022/06/15 03:27:33;;;;;;;12.30;6.57;;;;;;;11.93;86.45;101729.31;5095277;28;20052;-57
2022/06/15 03:30:00;;;;;;;8.77;6.07;;;;;;;11.93;87.24;101738.03;5094691;28;20093;-56
2022/06/15 03:32:25;;;;;;;8.68;6.53;;;;;;;11.97;86.61;101742.38;5095007;28;20042;-57
2022/06/15 03:34:50;;;;;;;12.15;6.45;;;;;;;12.00;86.35;101739.72;5094814;28;20106;-57
2022/06/15 03:37:16;;;;;;;10.88;6.72;;;;;;;11.95;86.20;101736.25;5094972;28;20032;-57
2022/06/15 03:39:41;;;;;;;9.77;6.45;;;;;;;11.94;87.04;101739.78;5095261;28;20032;-58
2022/06/15 03:42:08;;;;;;;11.00;6.45;;;;;;;12.05;86.51;101743.22;5095128;28;20032;-57
2022/06/15 03:44:33;;;;;;;12.15;6.40;;;;;;;12.05;86.34;101742.34;5094918;28;20032;-57
2022/06/15 03:46:59;;;;;;;9.45;6.78;;;;;;;12.04;86.89;101743.22;5094580;28;20032;-57
2022/06/15 03:49:24;;;;;;;10.43;6.15;;;;;;;12.05;86.58;101740.59;5094649;28;20030;-59
2022/06/15 03:51:49;;;;;;;10.02;6.28;;;;;;;12.12;86.60;101744.06;5095040;28;20450;-57
2022/06/15 03:54:14;;;;;;;8.63;6.22;;;;;;;12.01;86.40;101723.13;5094898;28;20031;-56
2022/06/15 03:56:46;;;;;;;10.43;6.25;;;;;;;12.08;85.72;101740.59;5095111;28;20035;-59
2022/06/15 03:59:12;;;;;;;9.07;6.68;;;;;;;12.05;86.42;101744.97;5094916;28;20469;-57
2022/06/15 04:01:37;;;;;;;11.45;6.45;;;;;;;12.10;86.05;101738.81;5094877;28;20098;-56
2022/06/15 04:04:03;;;;;;;10.00;6.25;;;;;;;12.08;86.07;101743.22;5094808;28;20032;-56
2022/06/15 04:06:28;;;;;;;12.43;6.05;;;;;;;12.13;85.84;101745.78;5095026;28;20028;-57
2022/06/15 04:08:53;;;;;;;11.65;6.47;;;;;;;12.13;86.42;101746.66;5094912;28;20028;-57
2022/06/15 04:14:04;;;;;;;10.63;6.60;;;;;;;12.12;86.78;101755.41;5094341;28;20442;-56
2022/06/15 04:16:30;;;;;;;10.85;6.40;;;;;;;12.17;86.01;101751.00;5094633;28;20359;-57
2022/06/15 04:18:56;;;;;;;8.70;5.88;;;;;;;12.19;86.24;101751.88;5094616;28;20055;-56
2022/06/15 04:21:21;;;;;;;9.80;6.65;;;;;;;12.19;86.88;101737.88;5094563;28;20120;-55
2022/06/15 04:23:46;;;;;;;12.93;6.50;;;;;;;12.22;85.68;101748.38;5094751;28;20027;-55
2022/06/15 04:26:12;;;;;;;14.70;6.50;;;;;;;12.24;86.27;101740.50;5094378;28;20107;-57
2022/06/15 04:28:39;;;;;;;11.50;6.43;;;;;;;12.21;86.06;101736.13;5094613;28;20113;-54
2022/06/15 04:31:05;;;;;;;11.75;6.68;;;;;;;12.18;85.98;101744.00;5094357;28;20119;-55
2022/06/15 04:33:30;;;;;;;13.55;6.95;;;;;;;12.22;85.76;101739.63;5094517;28;20110;-55
2022/06/15 04:35:56;;;;;;;13.48;6.57;;;;;;;12.27;86.17;101745.72;5094324;28;20050;-56
2022/06/15 04:38:21;;;;;;;9.25;6.72;;;;;;;12.31;85.32;101739.56;5094494;28;20032;-55
2022/06/15 04:40:47;;;;;;;11.82;7.07;;;;;;;12.25;86.00;101716.88;5095707;28;20096;-55
2022/06/15 04:43:12;;;;;;;11.88;7.00;;;;;;;12.38;85.38;101736.03;5097949;28;20081;-56
2022/06/15 04:45:38;;;;;;;11.43;7.05;;;;;;;12.37;85.29;101731.66;5097773;28;20451;-56
2022/06/15 04:48:04;;;;;;;12.68;7.25;;;;;;;12.36;85.31;101746.53;5097993;28;20032;-56
2022/06/15 04:50:30;;;;;;;12.60;6.85;;;;;;;12.39;85.47;101743.03;5097665;28;20028;-54
2022/06/15 04:52:55;;;;;;;12.50;7.60;;;;;;;12.39;85.36;101751.78;5097526;28;20036;-53
2022/06/15 04:55:22;;;;;;;10.45;7.82;;;;;;;12.44;85.17;101741.25;5097770;28;20028;-55
2022/06/15 04:57:50;;;;;;;11.85;7.22;;;;;;;12.45;85.35;101746.50;5097657;28;20046;-53
2022/06/15 05:00:18;;;;;;;14.23;7.68;;;;;;;12.48;85.15;101741.19;5097767;28;20335;-55
2022/06/15 05:02:44;;;;;;;12.85;7.50;;;;;;;12.53;85.27;101749.03;5097778;28;20122;-53
2022/06/15 05:05:10;;;;;;;16.92;8.15;;;;;;;12.61;85.27;101746.38;5098130;28;20063;-57
2022/06/15 05:07:35;;;;;;;15.95;7.32;;;;;;;12.65;84.85;101745.44;5097671;28;20075;-55
2022/06/15 05:10:01;;;;;;;13.38;7.88;;;;;;;12.69;85.17;101747.19;5097751;28;20032;-54
2022/06/15 05:12:26;;;;;;;15.02;8.50;;;;;;;12.75;84.79;101755.91;5097286;28;20039;-56
2022/06/15 05:14:51;;;;;;;10.10;7.55;;;;;;;12.83;84.74;101750.56;5097624;28;20096;-53
2022/06/15 05:17:22;;;;;;;8.93;7.43;;;;;;;12.86;84.73;101751.41;5097252;28;20051;-57
2022/06/15 05:19:48;;;;;;;11.88;8.65;;;;;;;12.90;84.58;101750.50;5097555;28;20031;-56
2022/06/15 05:22:14;;;;;;;13.48;8.73;;;;;;;12.95;84.04;101747.84;5097441;28;20081;-55
2022/06/15 05:24:39;;;;;;;13.13;7.90;;;;;;;13.00;84.45;101748.66;5097319;28;20028;-57
2022/06/15 05:27:05;;;;;;;13.77;8.68;;;;;;;13.06;83.66;101748.63;5097093;28;20166;-56
2022/06/15 05:29:31;;;;;;;12.15;7.68;;;;;;;13.15;83.74;101751.22;5097648;28;20036;-57
2022/06/15 05:31:56;;;;;;;11.90;8.75;;;;;;;13.21;83.73;101743.25;5097138;28;20032;-55
2022/06/15 05:34:22;;;;;;;11.80;8.15;;;;;;;13.29;83.99;101753.69;5097312;28;20028;-56
2022/06/15 05:36:48;;;;;;;12.95;8.82;;;;;;;13.31;83.81;101751.94;5097229;28;20028;-56
2022/06/15 05:39:13;;;;;;;12.98;8.10;;;;;;;13.41;83.56;101750.06;5097186;28;20092;-55
2022/06/15 05:41:39;;;;;;;12.98;8.25;;;;;;;13.48;83.04;101744.72;5097105;28;20427;-56
2022/06/15 05:44:19;;;;;;;12.77;8.77;;;;;;;13.54;82.82;101749.91;5097218;28;20120;-56
2022/06/15 05:46:44;;;;;;;13.30;8.50;;;;;;;13.63;82.13;101754.19;5097322;28;20094;-56
2022/06/15 05:49:10;;;;;;;15.30;9.23;;;;;;;13.71;82.50;101756.72;5097123;28;20039;-56
2022/06/15 05:51:36;;;;;;;16.08;9.15;;;;;;;13.79;82.03;101760.16;5096385;28;20020;-57
2022/06/15 05:54:01;;;;;;;15.77;8.20;;;;;;;13.86;81.52;101752.16;5096432;28;20036;-56
2022/06/15 05:56:27;;;;;;;11.43;8.10;;;;;;;13.98;81.55;101755.53;5096840;28;20115;-57
2022/06/15 05:58:53;;;;;;;12.85;8.00;;;;;;;14.58;79.70;101748.56;5096963;28;20107;-56
2022/06/15 06:01:29;;;;;;;11.93;7.55;;;;;;;15.52;76.48;101751.31;5096801;28;20047;-55
2022/06/15 06:03:54;;;;;;;11.93;7.75;;;;;;;16.06;73.18;101741.44;5096577;28;20454;-54
2022/06/15 06:06:20;;;;;;;13.27;8.05;;;;;;;15.88;73.03;101752.38;5096522;28;20032;-56
2022/06/15 06:08:45;;;;;;;10.20;7.50;;;;;;;15.61;73.43;101752.03;5096325;28;20389;-56
2022/06/15 06:11:11;;;;;;;11.32;7.32;;;;;;;15.40;75.36;101751.56;5096486;28;20024;-58
2022/06/15 06:13:36;;;;;;;13.50;7.60;;;;;;;15.30;75.30;101745.56;5095976;28;20119;-57
2022/06/15 06:16:01;;;;;;;11.15;7.43;;;;;;;15.20;76.00;101744.88;5096510;28;20077;-56
2022/06/15 06:18:27;;;;;;;11.38;7.60;;;;;;;15.18;75.79;101745.81;5096643;28;20042;-57
2022/06/15 06:20:52;;;;;;;10.90;6.80;;;;;;;15.17;75.47;101749.34;5096200;28;20038;-56
2022/06/15 06:23:19;;;;;;;10.32;7.20;;;;;;;15.20;75.89;101744.00;5096142;28;20466;-58
2022/06/15 06:25:47;;;;;;;12.57;7.90;;;;;;;15.25;75.54;101742.13;5096045;28;20036;-56
2022/06/15 06:28:33;;;;;;;11.57;7.28;;;;;;;15.29;75.29;101744.69;5095605;28;20453;-57
2022/06/15 06:31:01;;;;;;;10.40;7.35;;;;;;;15.30;76.09;101745.56;5096223;28;20350;-55
2022/06/15 06:33:28;;;;;;;12.98;7.65;;;;;;;15.31;75.12;101750.81;5096232;28;20070;-56
2022/06/15 06:35:55;;;;;;;10.77;7.53;;;;;;;15.38;75.69;101758.63;5095737;28;20032;-57
2022/06/15 06:38:21;;;;;;;9.77;8.20;;;;;;;15.43;76.47;101757.63;5096174;28;20054;-56
2022/06/15 06:40:51;;;;;;;10.80;7.50;;;;;;;15.48;76.36;101749.63;5095747;28;20443;-58
2022/06/15 06:43:16;;;;;;;11.68;8.25;;;;;;;15.51;76.25;101752.22;5095939;28;20550;-59
2022/06/15 06:45:45;;;;;;;13.95;8.50;;;;;;;15.55;76.42;101757.44;5096060;28;20032;-56
2022/06/15 06:48:11;;;;;;;11.32;8.35;;;;;;;15.57;76.15;101755.66;5095977;28;20059;-57
2022/06/15 06:50:39;;;;;;;12.93;7.88;;;;;;;15.63;75.27;101760.78;5095463;28;20398;-56
2022/06/15 06:53:04;;;;;;;13.73;8.07;;;;;;;15.70;75.39;101760.69;5095725;28;20064;-56
2022/06/15 06:55:30;;;;;;;14.02;7.43;;;;;;;16.06;74.16;101749.34;5095621;28;20384;-56
2022/06/15 06:57:57;;;;;;;10.85;7.88;;;;;;;16.27;73.09;101756.81;5095704;28;20034;-57
2022/06/15 07:00:22;;;;;;;13.13;7.10;;;;;;;16.34;72.18;101758.41;5095866;28;20115;-57
2022/06/15 07:02:48;;;;;;;11.07;7.47;;;;;;;16.25;71.52;101760.41;5095125;28;20082;-56
2022/06/15 07:05:13;;;;;;;14.23;7.72;;;;;;;16.19;72.48;101761.38;5095309;28;20111;-58
2022/06/15 07:07:38;;;;;;;10.45;6.60;;;;;;;16.21;73.02;101766.63;5095677;28;20330;-55
2022/06/15 07:10:04;;;;;;;14.48;6.85;;;;;;;16.24;71.70;101769.22;5095854;28;20036;-55
2022/06/15 07:12:29;;;;;;;8.32;6.35;;;;;;;16.27;71.61;101771.78;5095551;28;20054;-56
2022/06/15 07:14:54;;;;;;;11.10;6.43;;;;;;;16.30;71.88;101763.78;5095492;28;20043;-56
2022/06/15 07:17:20;;;;;;;12.25;6.32;;;;;;;16.35;71.62;101769.84;5095185;28;20024;-56
2022/06/15 07:19:48;;;;;;;10.00;6.63;;;;;;;16.44;70.63;101763.50;5095661;28;20332;-55
2022/06/15 07:22:13;;;;;;;10.52;6.45;;;;;;;16.53;69.87;101771.19;5097726;28;20080;-58
2022/06/15 07:24:38;;;;;;;11.38;6.32;;;;;;;16.60;70.43;101762.22;5105659;28;20031;-56
2022/06/15 07:27:04;;;;;;;7.90;5.95;;;;;;;16.62;70.06;101761.25;5104686;28;20034;-56
2022/06/15 07:29:30;;;;;;;8.50;6.45;;;;;;;16.65;71.19;101765.63;5104598;28;20420;-56
2022/06/15 07:31:56;;;;;;;9.50;6.25;;;;;;;16.77;69.29;101768.00;5108040;28;20032;-56
2022/06/15 07:34:23;;;;;;;9.82;6.10;;;;;;;16.85;70.33;101763.38;5113458;28;20035;-56
2022/06/15 07:36:49;;;;;;;9.38;5.80;;;;;;;16.94;69.18;101763.19;5113888;28;20036;-58
2022/06/15 07:39:27;;;;;;;9.90;5.80;;;;;;;17.01;70.18;101764.75;5113809;28;20479;-57
2022/06/15 07:41:53;;;;;;;10.07;6.60;;;;;;;17.17;68.59;101767.00;5113930;28;20032;-56
2022/06/15 07:44:20;;;;;;;14.02;6.05;;;;;;;17.30;67.71;101769.31;5113784;28;20042;-57
2022/06/15 07:46:45;;;;;;;10.40;6.13;;;;;;;17.30;67.66;101752.56;5113727;28;20346;-58
2022/06/15 07:52:02;;;;;;;7.65;5.20;;;;;;;17.68;66.83;101762.97;5113629;28;20050;-56
2022/06/15 07:54:28;;;;;;;8.55;5.20;;;;;;;17.78;65.72;101773.31;5113806;28;20042;-55
2022/06/15 07:56:55;;;;;;;9.18;4.90;;;;;;;17.76;66.28;101772.50;5113671;28;20044;-57
2022/06/15 07:59:22;;;;;;;7.45;5.15;;;;;;;17.87;64.89;101765.97;5113594;28;20384;-56
2022/06/15 08:01:48;;;;;;;7.90;5.40;;;;;;;17.97;63.73;101769.22;5113614;28;20039;-58
2022/06/15 08:04:14;;;;;;;10.43;5.30;;;;;;;17.97;62.62;101775.41;5113428;28;20039;-52
2022/06/15 08:06:42;;;;;;;8.90;5.50;;;;;;;17.96;62.68;101770.13;5113615;28;20427;-56
2022/06/15 08:09:09;;;;;;;11.65;5.90;;;;;;;17.93;63.03;101775.53;5113712;28;20035;-56
2022/06/15 08:11:36;;;;;;;10.85;5.28;;;;;;;17.98;63.93;101781.56;5113313;28;20122;-57
2022/06/15 08:14:01;;;;;;;8.10;4.80;;;;;;;18.01;63.05;101776.16;5114647;28;20035;-58
2022/06/15 08:16:26;;;;;;;8.35;5.50;;;;;;;17.98;63.89;101763.88;5117585;28;20039;-56
2022/06/15 08:18:56;;;;;;;6.68;4.65;;;;;;;18.09;63.69;101766.22;5119376;28;20458;-55
2022/06/15 08:21:25;;;;;;;8.45;5.00;;;;;;;18.17;61.75;101774.81;5119150;28;20023;-57
2022/06/15 08:23:53;;;;;;;9.02;5.35;;;;;;;18.19;61.48;101780.91;5119165;28;20031;-59
2022/06/15 08:26:23;;;;;;;7.70;5.35;;;;;;;18.21;60.72;101778.22;5119958;28;20050;-59
2022/06/15 08:28:52;;;;;;;11.50;5.43;;;;;;;18.22;61.45;101772.00;5118774;28;20540;-59
2022/06/15 08:31:19;;;;;;;12.77;4.53;;;;;;;18.28;61.63;101769.16;5118618;28;20059;-54
2022/06/15 08:33:44;;;;;;;14.93;6.40;;;;;;;18.36;61.45;101773.31;5119092;28;20365;-57
2022/06/15 08:36:11;;;;;;;14.98;5.55;;;;;;;18.42;61.90;101774.91;5118749;28;20020;-58
2022/06/15 08:38:37;;;;;;;7.18;5.70;;;;;;;18.50;60.77;101764.09;5118649;28;20119;-58
2022/06/15 08:41:10;;;;;;;8.27;5.20;;;;;;;18.61;60.16;101767.28;5118631;28;20028;-59
2022/06/15 08:43:53;;;;;;;8.82;4.60;;;;;;;18.68;60.58;101768.84;5118475;28;20041;-60
2022/06/15 08:46:36;;;;;;;10.93;4.97;;;;;;;18.82;60.05;101765.72;5118842;28;20070;-60
2022/06/15 08:49:15;;;;;;;10.00;4.43;;;;;;;18.99;59.68;101763.38;5118370;28;20036;-59
2022/06/15 08:51:48;;;;;;;10.00;5.22;;;;;;;19.17;58.18;101762.75;5118185;28;20031;-58
2022/06/15 08:54:30;;;;;;;7.28;4.38;;;;;;;19.41;58.45;101766.31;5118504;28;20502;-58
2022/06/15 08:57:05;;;;;;;10.50;4.68;;;;;;;19.79;57.39;101763.19;5118403;28;20417;-58
2022/06/15 08:59:53;;;;;;;9.25;4.57;;;;;;;20.03;55.75;101757.91;5118065;28;20092;-59
2022/06/15 09:02:43;;;;;;;10.23;4.63;;;;;;;20.38;54.98;101752.09;5118465;28;20084;-59
2022/06/15 09:05:49;;;;;;;9.35;4.80;;;;;;;20.94;53.52;101756.03;5118631;28;20044;-59
2022/06/15 09:08:39;;;;;;;7.60;4.47;;;;;;;21.32;52.75;101751.75;5118064;28;20035;-59
2022/06/15 09:11:29;;;;;;;13.50;5.25;;;;;;;21.85;49.86;101750.22;5118055;28;20032;-59
2022/06/15 09:14:09;;;;;;;9.00;4.53;;;;;;;22.58;47.73;101753.91;5117995;28;20099;-59
2022/06/15 09:16:45;;;;;;;9.75;5.15;;;;;;;23.27;45.40;101751.31;5117988;28;20389;-58
2022/06/15 09:19:16;;;;;;;11.35;4.63;;;;;;;23.91;44.76;101755.94;5117987;28;20028;-60
2022/06/15 09:21:47;;;;;;;7.75;4.60;;;;;;;24.16;43.70;101750.97;5117929;28;20034;-60
2022/06/15 09:24:27;;;;;;;7.72;4.10;;;;;;;25.16;42.51;101746.13;5117687;28;20091;-57
2022/06/15 09:27:30;;;;;;;7.60;4.78;;;;;;;25.80;42.19;101743.06;5117175;28;20027;-59
2022/06/15 09:30:07;;;;;;;12.93;5.15;;;;;;;26.75;39.37;101740.47;5076895;28;20127;-61
2022/06/15 09:32:46;;;;;;;11.38;4.18;;;;;;;26.34;40.25;101745.88;5077091;28;20040;-60
2022/06/15 09:35:20;;;;;;;9.38;4.63;;;;;;;25.96;38.44;101742.97;5077201;28;20035;-57
2022/06/15 09:37:49;;;;;;;11.32;4.55;;;;;;;25.41;39.89;101740.16;5076813;28;20123;-58
2022/06/15 09:40:15;;;;;;;9.63;4.43;;;;;;;24.60;41.00;101743.13;5076788;28;20105;-58
2022/06/15 09:43:06;;;;;;;9.23;4.35;;;;;;;23.94;45.21;101742.41;5076805;28;20032;-58
2022/06/15 09:45:37;;;;;;;9.35;4.13;;;;;;;23.58;42.78;101742.59;5076805;28;20107;-57
2022/06/15 09:48:19;;;;;;;9.80;4.55;;;;;;;23.23;43.97;101741.72;5076793;28;20340;-58
2022/06/15 09:51:26;;;;;;;9.48;4.93;;;;;;;22.97;46.05;101743.09;5077038;28;20029;-58
2022/06/15 09:54:11;;;;;;;7.53;4.43;;;;;;;22.75;46.51;101737.06;5031813;28;20052;-58
2022/06/15 09:56:36;;;;;;;10.60;4.50;;;;;;;22.63;46.49;101741.22;5076578;28;20056;-58
2022/06/15 09:59:07;;;;;;;10.07;4.40;;;;;;;22.63;46.11;101746.56;5076762;28;20101;-58
2022/06/15 10:01:37;;;;;;;8.98;4.68;;;;;;;22.61;46.66;101739.56;5076465;28;20461;-58
2022/06/15 10:04:05;;;;;;;8.70;4.07;;;;;;;22.60;47.65;101735.16;5076499;28;20411;-58
2022/06/15 10:06:46;;;;;;;6.50;3.72;;;;;;;22.59;45.96;101744.97;5076128;28;20036;-56
2022/06/15 10:09:17;;;;;;;9.48;4.00;;;;;;;22.72;45.88;101734.53;5076241;28;20353;-57
2022/06/15 10:11:47;;;;;;;8.77;4.30;;;;;;;22.81;44.99;101737.66;5076369;28;20089;-58
2022/06/15 10:14:17;;;;;;;11.30;4.15;;;;;;;23.03;45.67;101745.44;5076438;28;20032;-57
2022/06/15 10:16:50;;;;;;;12.05;4.60;;;;;;;23.10;45.32;101751.34;5076380;28;20036;-58
2022/06/15 10:19:15;;;;;;;9.25;4.00;;;;;;;23.19;45.75;101745.53;5074885;28;20037;-58
2022/06/15 10:21:41;;;;;;;10.35;4.78;;;;;;;23.17;43.87;101742.94;5076401;28;20524;-57
2022/06/15 10:24:06;;;;;;;10.10;4.30;;;;;;;23.17;44.29;101742.94;5076283;28;20035;-58
2022/06/15 10:26:47;;;;;;;8.18;3.80;;;;;;;23.36;46.09;101736.63;5075829;28;20036;-58
2022/06/15 10:29:30;;;;;;;7.82;4.35;;;;;;;23.41;45.21;101732.75;5112308;28;20044;-58
2022/06/15 10:32:01;;;;;;;8.52;4.03;;;;;;;23.49;44.55;101737.72;5114821;28;20039;-57
2022/06/15 10:34:32;;;;;;;10.00;4.77;;;;;;;23.55;44.13;101740.09;5114797;28;20058;-57
2022/06/15 10:37:20;;;;;;;10.40;4.80;;;;;;;23.49;42.56;101743.06;5115353;28;20043;-58
2022/06/15 10:39:51;;;;;;;9.68;4.30;;;;;;;23.53;44.10;101734.84;5104715;28;20466;-58
2022/06/15 10:42:21;;;;;;;8.45;4.35;;;;;;;23.62;42.76;101740.63;5116303;28;20035;-58
2022/06/15 10:44:59;;;;;;;9.45;4.50;;;;;;;23.72;43.78;101739.19;5116606;28;20030;-59
2022/06/15 10:47:40;;;;;;;9.20;4.25;;;;;;;23.63;43.74;101735.19;5116244;28;20095;-63
2022/06/15 10:50:16;;;;;;;8.50;4.03;;;;;;;23.74;43.32;101735.47;5115671;28;20027;-58
2022/06/15 10:52:48;;;;;;;10.73;4.50;;;;;;;23.79;43.35;101729.88;5115801;28;20070;-58
2022/06/15 11:03:37;;;;;;;8.43;4.03;;;;;;;23.79;42.40;101725.41;5115812;28;20058;-57
2022/06/15 11:06:02;;;;;;;7.60;4.20;;;;;;;23.85;42.45;101719.72;5115958;28;20031;-58
2022/06/15 11:08:32;;;;;;;8.98;4.65;;;;;;;23.74;40.91;101706.06;5116015;28;20712;-58
2022/06/15 11:11:12;;;;;;;9.75;4.70;;;;;;;23.74;43.06;101702.53;5115657;28;20185;-58
2022/06/15 11:13:42;;;;;;;7.45;4.00;;;;;;;23.88;42.54;101697.31;5115674;28;20039;-58
2022/06/15 11:19:09;;;;;;;9.05;4.40;;;;;;;23.91;42.18;101706.00;5115864;28;20122;-58
2022/06/15 11:21:57;;;;;;;8.95;4.38;;;;;;;24.18;43.39;101702.75;5115229;28;20362;-58
2022/06/15 11:24:37;;;;;;;11.43;4.88;;;;;;;24.18;42.89;101706.28;5104513;28;20044;-59
2022/06/15 11:27:18;;;;;;;9.35;4.32;;;;;;;24.17;43.21;101701.03;5115542;28;20035;-59
2022/06/15 11:30:02;;;;;;;8.77;4.22;;;;;;;24.32;43.87;101708.19;5115426;28;20035;-59
2022/06/15 11:32:42;;;;;;;7.15;4.50;;;;;;;24.36;43.02;101709.75;5115617;28;20031;-58
2022/06/15 11:35:19;;;;;;;10.55;4.70;;;;;;;24.35;42.42;101707.16;5115561;28;20028;-59
2022/06/15 11:38:14;;;;;;;10.48;4.60;;;;;;;24.24;43.78;101705.94;5115445;28;20028;-59
2022/06/15 11:40:50;;;;;;;7.78;4.18;;;;;;;24.42;42.87;101714.75;5115645;28;20032;-58
2022/06/15 11:43:16;;;;;;;8.30;4.40;;;;;;;24.35;41.71;101707.16;5115554;28;20027;-58
2022/06/15 11:45:59;;;;;;;8.00;4.37;;;;;;;24.32;42.69;101713.56;5115598;28;20027;-59
2022/06/15 11:48:58;;;;;;;10.13;4.30;;;;;;;24.38;43.25;101701.66;5115283;28;20032;-59
2022/06/15 11:51:38;;;;;;;7.53;4.40;;;;;;;24.47;41.69;101701.97;5119667;28;20024;-58
2022/06/15 11:54:09;;;;;;;7.05;3.55;;;;;;;24.56;42.20;101690.75;5119571;28;20035;-58
2022/06/15 11:56:50;;;;;;;8.32;3.72;;;;;;;24.62;42.21;101709.09;5120382;28;20020;-59